Terminal Aerodrome Forecast
Issued by NWS

Home | Current Version | Previous Version | Text Only | Print | Product List | Glossary Off
Versions: 1 2 3 4 5 6 7 8 9 10 11 12 13 14 15 16 17 18 19 20 21 22 23 24 25 26 27 28 29 30 31 32 33 34 35 36 37 38 39 40 41 42 43 44 45 46 47 48 49 50

000
FTUS43 KLOT 222100 AAB
TAFGYY
TAF AMD
KGYY 222100Z 2221/2318 20012G18KT P6SM VCTS SCT030CB BKN040 BKN250
     FM230200 21012KT P6SM BKN025 BKN050
     FM230600 23012KT P6SM -SHRA SCT010 BKN020 BKN050
      TEMPO 2307/2310 4SM -TSRA BKN015CB BKN050
     FM231100 36011KT P6SM BKN015 BKN050
     FM231400 34010KT P6SM SCT020 BKN035=

USA.gov is the U.S. government's official web portal to all federal, state and local government web resources and services.